createdAt,value
2022-08-30T00:04:39.140Z,7.47
2022-08-30T00:09:45.089Z,7.83
2022-08-30T00:14:49.718Z,8.23
2022-08-30T00:19:55.836Z,7.70
2022-08-30T00:25:02.115Z,8.98
2022-08-30T00:30:09.221Z,8.30
2022-08-30T00:35:18.470Z,7.82
2022-08-30T00:40:27.652Z,7.78
2022-08-30T00:45:36.205Z,8.27
2022-08-30T00:50:47.025Z,8.20
2022-08-30T00:55:55.119Z,8.90
2022-08-30T01:01:02.589Z,8.53
2022-08-30T01:06:09.118Z,8.43
2022-08-30T01:11:18.508Z,8.50
2022-08-30T01:16:27.327Z,8.77
2022-08-30T01:21:42.557Z,8.43
2022-08-30T01:26:48.529Z,8.83
2022-08-30T01:31:53.485Z,7.85
2022-08-30T01:36:57.962Z,9.50
2022-08-30T01:42:05.868Z,9.00
2022-08-30T01:47:10.351Z,9.77
2022-08-30T01:52:16.210Z,8.50
2022-08-30T01:57:26.890Z,8.15
2022-08-30T02:02:31.785Z,9.17
2022-08-30T02:07:36.379Z,9.65
2022-08-30T02:12:42.650Z,8.60
2022-08-30T02:17:47.115Z,8.90
2022-08-30T02:22:51.527Z,8.90
2022-08-30T02:27:57.163Z,8.95
2022-08-30T02:33:01.573Z,8.80
2022-08-30T02:38:08.080Z,9.00
2022-08-30T02:43:14.073Z,8.90
2022-08-30T02:48:18.402Z,8.35
2022-08-30T02:53:22.940Z,10.02
2022-08-30T02:58:28.713Z,9.55
2022-08-30T03:03:35.596Z,10.63
2022-08-30T03:08:40.157Z,9.50
2022-08-30T03:13:45.825Z,9.95
2022-08-30T03:18:50.443Z,9.80
2022-08-30T03:23:54.683Z,10.25
2022-08-30T03:29:00.515Z,10.43
2022-08-30T03:34:06.423Z,10.43
2022-08-30T03:39:13.969Z,10.53
2022-08-30T03:44:20.025Z,9.50
2022-08-30T03:49:25.172Z,8.98
2022-08-30T03:54:32.531Z,10.73
2022-08-30T03:59:38.459Z,9.93
2022-08-30T04:04:42.794Z,9.52
2022-08-30T04:09:47.531Z,11.07
2022-08-30T04:14:53.510Z,10.57
2022-08-30T04:19:58.248Z,10.63
2022-08-30T04:25:02.527Z,10.77
2022-08-30T04:30:09.803Z,11.15
2022-08-30T04:35:15.192Z,10.45
2022-08-30T04:40:20.421Z,10.93
2022-08-30T04:45:26.543Z,10.07
2022-08-30T04:50:31.201Z,11.98
2022-08-30T04:55:35.644Z,10.75
2022-08-30T05:00:44.602Z,11.43
2022-08-30T05:05:50.152Z,10.80
2022-08-30T05:10:54.815Z,10.13
2022-08-30T05:16:01.322Z,10.65
2022-08-30T05:21:10.926Z,8.98
2022-08-30T05:26:19.139Z,9.37
2022-08-30T05:31:29.195Z,8.87
2022-08-30T05:36:37.814Z,10.93
2022-08-30T05:41:44.287Z,9.87
2022-08-30T05:46:50.207Z,10.65
2022-08-30T05:51:54.995Z,12.27
2022-08-30T05:56:59.407Z,10.77
2022-08-30T06:02:07.392Z,11.15
2022-08-30T06:07:14.861Z,11.50
2022-08-30T06:12:21.849Z,9.77
2022-08-30T06:17:27.755Z,11.47
2022-08-30T06:22:32.094Z,10.00
2022-08-30T06:27:36.393Z,9.35
2022-08-30T06:32:42.567Z,10.40
2022-08-30T06:37:46.927Z,8.70
2022-08-30T06:42:51.564Z,7.80
2022-08-30T06:53:07.904Z,8.20
2022-08-30T06:58:13.748Z,10.05
2022-08-30T07:03:19.521Z,7.93
2022-08-30T07:08:24.884Z,7.07
2022-08-30T07:13:30.241Z,7.70
2022-08-30T07:18:55.739Z,7.47
2022-08-30T07:24:02.289Z,6.93
2022-08-30T07:29:09.260Z,6.72
2022-08-30T07:34:15.145Z,6.32
2022-08-30T07:39:20.138Z,5.43
2022-08-30T07:44:25.686Z,5.63
2022-08-30T07:49:31.863Z,5.60
2022-08-30T07:54:37.657Z,5.00
2022-08-30T07:59:41.930Z,5.28
2022-08-30T08:04:48.569Z,4.77
2022-08-30T08:15:22.196Z,5.45
2022-08-30T08:20:28.143Z,4.88
2022-08-30T08:25:32.862Z,5.87
2022-08-30T08:30:41.593Z,6.57
2022-08-30T08:35:49.803Z,6.05
2022-08-30T08:41:06.403Z,5.90
2022-08-30T08:46:23.018Z,5.95
2022-08-30T08:52:04.451Z,5.47
2022-08-30T08:57:13.930Z,4.90
2022-08-30T09:02:28.530Z,4.70
2022-08-30T09:07:43.813Z,5.13
2022-08-30T09:12:48.346Z,4.93
2022-08-30T09:17:57.400Z,5.53
2022-08-30T09:23:30.632Z,5.25
2022-08-30T09:28:46.167Z,5.80
2022-08-30T09:33:57.944Z,5.80
2022-08-30T09:39:07.927Z,5.28
2022-08-30T09:44:19.668Z,5.80
2022-08-30T09:49:35.200Z,5.78
2022-08-30T09:54:59.117Z,5.43
2022-08-30T10:00:18.726Z,4.97
2022-08-30T10:05:36.222Z,5.23
2022-08-30T10:10:53.937Z,5.20
2022-08-30T10:16:08.681Z,4.60
2022-08-30T10:21:20.316Z,4.72
2022-08-30T10:26:34.411Z,4.40
2022-08-30T10:31:48.409Z,3.58
2022-08-30T10:36:59.601Z,4.00
2022-08-30T10:42:16.404Z,4.53
2022-08-30T10:47:34.590Z,4.47
2022-08-30T10:52:48.547Z,4.50
2022-08-30T10:57:55.082Z,3.70
2022-08-30T11:03:51.540Z,4.25
2022-08-30T11:09:30.818Z,3.88
2022-08-30T11:14:43.303Z,3.90
2022-08-30T11:19:48.631Z,4.13
2022-08-30T11:25:14.273Z,4.30
2022-08-30T11:31:06.644Z,3.63
2022-08-30T11:36:13.091Z,3.70
2022-08-30T11:41:40.857Z,4.13
2022-08-30T11:46:47.743Z,4.28
2022-08-30T11:52:26.934Z,4.30
2022-08-30T11:57:46.903Z,4.20
2022-08-30T12:03:02.047Z,4.85
2022-08-30T12:08:11.048Z,4.47
2022-08-30T12:13:55.499Z,5.03
2022-08-30T12:19:18.767Z,4.70
2022-08-30T12:24:29.355Z,5.03
2022-08-30T12:29:33.789Z,5.10
2022-08-30T12:34:56.300Z,5.07
2022-08-30T12:40:11.694Z,5.05
2022-08-30T12:45:21.983Z,5.53
2022-08-30T12:50:34.882Z,5.75
2022-08-30T12:55:55.861Z,5.83
2022-08-30T13:01:27.285Z,5.73
2022-08-30T13:06:49.337Z,5.70
2022-08-30T13:11:55.238Z,6.90
2022-08-30T13:17:28.691Z,6.00
2022-08-30T13:22:39.279Z,5.70
2022-08-30T13:27:44.211Z,5.32
2022-08-30T13:32:48.545Z,5.88
2022-08-30T13:37:54.274Z,5.68
2022-08-30T13:42:58.982Z,5.35
2022-08-30T13:48:04.196Z,5.43
2022-08-30T13:53:11.172Z,6.03
2022-08-30T13:58:16.691Z,5.78
2022-08-30T14:03:21.200Z,6.25
2022-08-30T14:08:48.156Z,4.93
2022-08-30T14:19:22.410Z,6.80
2022-08-30T14:24:28.348Z,9.93
2022-08-30T14:29:34.003Z,7.93
2022-08-30T14:34:39.702Z,6.45
2022-08-30T14:39:45.898Z,6.27
2022-08-30T14:44:56.645Z,6.22
2022-08-30T14:50:01.909Z,7.43
2022-08-30T14:55:12.734Z,7.53
2022-08-30T15:00:18.354Z,6.32
2022-08-30T15:05:24.399Z,5.95
2022-08-30T15:10:30.509Z,5.53
2022-08-30T15:15:35.495Z,5.82
2022-08-30T15:20:47.624Z,5.80
2022-08-30T15:25:54.400Z,6.70
2022-08-30T15:30:58.946Z,5.50
2022-08-30T15:36:06.108Z,6.68
2022-08-30T15:41:14.017Z,6.25
2022-08-30T15:46:23.520Z,6.23
2022-08-30T15:51:41.463Z,6.82
2022-08-30T15:56:48.226Z,6.37
2022-08-30T16:01:52.951Z,6.78
2022-08-30T16:06:57.446Z,6.70
2022-08-30T16:12:08.388Z,6.13
2022-08-30T16:17:15.165Z,7.20
2022-08-30T16:22:23.344Z,7.05
2022-08-30T16:27:29.203Z,6.47
2022-08-30T16:32:33.599Z,6.68
2022-08-30T16:37:39.183Z,7.32
2022-08-30T16:42:46.173Z,6.70
2022-08-30T16:47:50.925Z,5.68
2022-08-30T16:52:56.834Z,13.07
2022-08-30T16:58:04.511Z,6.38
2022-08-30T17:03:10.565Z,5.25
2022-08-30T17:08:15.314Z,5.72
2022-08-30T17:13:22.745Z,5.93
2022-08-30T17:18:27.652Z,3.83
2022-08-30T17:23:34.368Z,3.97
2022-08-30T17:28:41.696Z,3.60
2022-08-30T17:33:46.356Z,3.33
2022-08-30T17:38:51.182Z,3.47
2022-08-30T17:43:56.932Z,3.58
2022-08-30T17:49:02.029Z,3.72
2022-08-30T17:54:06.939Z,3.40
2022-08-30T17:59:15.426Z,3.72
2022-08-30T18:04:25.041Z,3.33
2022-08-30T18:09:33.870Z,3.95
2022-08-30T18:14:40.370Z,3.80
2022-08-30T18:19:49.397Z,3.65
2022-08-30T18:24:53.784Z,3.97
2022-08-30T18:29:59.477Z,5.93
2022-08-30T18:35:03.793Z,4.28
2022-08-30T18:40:17.005Z,8.82
2022-08-30T18:45:24.507Z,4.25
2022-08-30T18:50:29.576Z,3.37
2022-08-30T18:55:34.016Z,3.25
2022-08-30T19:00:39.933Z,3.30
2022-08-30T19:05:45.021Z,3.35
2022-08-30T19:10:49.820Z,3.03
2022-08-30T19:15:55.937Z,3.70
2022-08-30T19:21:01.080Z,3.08
2022-08-30T19:26:07.353Z,4.00
2022-08-30T19:31:16.784Z,3.60
2022-08-30T19:36:21.592Z,3.00
2022-08-30T19:41:26.157Z,3.67
2022-08-30T19:46:33.102Z,3.08
2022-08-30T19:51:37.865Z,3.42
2022-08-30T19:56:42.664Z,3.28
2022-08-30T20:01:50.208Z,3.60
2022-08-30T20:06:55.140Z,3.67
2022-08-30T20:11:59.590Z,4.25
2022-08-30T20:17:05.938Z,4.70
2022-08-30T20:22:16.557Z,4.40
2022-08-30T20:27:21.153Z,4.40
2022-08-30T20:32:27.843Z,4.80
2022-08-30T20:37:33.329Z,4.20
2022-08-30T20:42:41.471Z,4.17
2022-08-30T20:47:47.306Z,4.55
2022-08-30T20:52:51.687Z,4.43
2022-08-30T20:57:56.407Z,4.10
2022-08-30T21:03:02.366Z,4.53
2022-08-30T21:08:15.500Z,3.97
2022-08-30T21:13:19.971Z,4.63
2022-08-30T21:18:29.538Z,4.03
2022-08-30T21:23:33.922Z,3.83
2022-08-30T21:28:40.124Z,3.47
2022-08-30T21:33:47.669Z,3.83
2022-08-30T21:38:52.648Z,3.90
2022-08-30T21:43:58.428Z,3.65
2022-08-30T21:49:09.619Z,3.72
2022-08-30T21:54:17.063Z,4.30
2022-08-30T21:59:22.676Z,4.10
2022-08-30T22:04:29.466Z,3.97
2022-08-30T22:09:33.934Z,4.63
2022-08-30T22:14:38.721Z,4.20
2022-08-30T22:19:45.049Z,3.40
2022-08-30T22:24:49.925Z,4.20
2022-08-30T22:29:54.379Z,3.80
2022-08-30T22:35:00.075Z,4.60
2022-08-30T22:40:06.829Z,4.10
2022-08-30T22:45:13.242Z,4.70
2022-08-30T22:50:19.544Z,4.17
2022-08-30T22:55:25.081Z,4.30
2022-08-30T23:00:29.508Z,4.63
2022-08-30T23:05:38.636Z,5.00
2022-08-30T23:10:44.409Z,4.30
2022-08-30T23:15:48.752Z,4.20
2022-08-30T23:20:54.637Z,4.30
2022-08-30T23:26:19.544Z,3.22
2022-08-30T23:31:41.768Z,3.30
2022-08-30T23:37:05.267Z,3.00
2022-08-30T23:42:26.790Z,3.95
2022-08-30T23:47:48.713Z,3.60
2022-08-30T23:53:12.112Z,3.20
2022-08-30T23:58:33.951Z,3.70
